createdAt,value
2018-11-13T00:02:42.686Z,37.53
2018-11-13T00:07:46.255Z,40.30
2018-11-13T00:13:05.895Z,40.27
2018-11-13T00:18:09.621Z,42.97
2018-11-13T00:23:13.090Z,46.30
2018-11-13T00:28:16.660Z,44.10
2018-11-13T00:33:20.284Z,49.87
2018-11-13T00:38:23.794Z,46.80
2018-11-13T00:43:27.464Z,50.47
2018-11-13T00:48:30.917Z,51.37
2018-11-13T00:53:34.428Z,52.33
2018-11-13T00:58:37.923Z,60.07
2018-11-13T01:03:41.612Z,55.17
2018-11-13T01:08:45.609Z,53.83
2018-11-13T01:13:49.080Z,57.63
2018-11-13T01:18:52.624Z,56.30
2018-11-13T01:23:56.161Z,56.20
2018-11-13T01:28:59.833Z,61.77
2018-11-13T01:34:03.656Z,59.27
2018-11-13T01:39:09.488Z,61.17
2018-11-13T01:44:13.052Z,62.70
2018-11-13T01:49:16.516Z,61.80
2018-11-13T01:54:19.972Z,62.83
2018-11-13T01:59:23.500Z,66.10
2018-11-13T02:04:26.974Z,68.70
2018-11-13T02:09:30.607Z,72.27
2018-11-13T02:14:34.556Z,70.53
2018-11-13T02:19:38.196Z,72.60
2018-11-13T02:24:41.757Z,75.67
2018-11-13T02:29:45.371Z,78.80
2018-11-13T02:34:48.860Z,78.47
2018-11-13T02:39:52.477Z,80.17
2018-11-13T02:44:56.147Z,81.00
2018-11-13T02:50:00.321Z,87.40
2018-11-13T02:55:04.461Z,82.43
2018-11-13T03:00:13.177Z,85.20
2018-11-13T03:05:18.146Z,89.10
2018-11-13T03:10:21.685Z,89.40
2018-11-13T03:15:25.265Z,92.17
2018-11-13T03:20:28.850Z,85.13
2018-11-13T03:25:33.684Z,90.03
2018-11-13T03:30:37.272Z,89.43
2018-11-13T03:35:41.109Z,88.73
2018-11-13T03:40:44.612Z,90.97
2018-11-13T03:45:48.350Z,97.40
2018-11-13T03:50:51.833Z,92.40
2018-11-13T03:55:55.457Z,93.07
2018-11-13T04:00:58.948Z,90.03
2018-11-13T04:06:02.449Z,88.53
2018-11-13T04:11:06.422Z,88.30
2018-11-13T04:16:10.061Z,89.70
2018-11-13T04:21:13.819Z,86.40
2018-11-13T04:26:17.450Z,85.77
2018-11-13T04:31:21.014Z,82.77
2018-11-13T04:36:24.709Z,96.70
2018-11-13T04:41:28.196Z,91.20
2018-11-13T04:46:31.753Z,90.90
2018-11-13T04:51:35.303Z,88.80
2018-11-13T04:56:38.869Z,91.50
2018-11-13T05:01:42.608Z,82.97
2018-11-13T05:06:46.183Z,88.30
2018-11-13T05:11:49.703Z,88.00
2018-11-13T05:16:53.186Z,86.77
2018-11-13T05:21:56.748Z,86.00
2018-11-13T05:27:00.418Z,84.23
2018-11-13T05:32:04.237Z,86.33
2018-11-13T05:37:07.933Z,80.93
2018-11-13T05:42:11.492Z,80.60
2018-11-13T05:47:15.366Z,83.17
2018-11-13T05:52:18.928Z,77.07
2018-11-13T05:57:22.402Z,78.70
2018-11-13T06:02:26.055Z,72.33
2018-11-13T06:07:29.540Z,77.50
2018-11-13T06:12:33.068Z,67.37
2018-11-13T06:17:36.755Z,70.03
2018-11-13T06:22:40.283Z,68.50
2018-11-13T06:27:45.802Z,65.53
2018-11-13T06:32:49.639Z,63.03
2018-11-13T06:37:53.180Z,63.93
2018-11-13T06:42:56.769Z,62.60
2018-11-13T06:48:00.542Z,58.17
2018-11-13T06:53:04.231Z,54.73
2018-11-13T06:58:07.752Z,54.57
2018-11-13T07:03:11.282Z,49.73
2018-11-13T07:08:15.063Z,44.60
2018-11-13T07:13:18.731Z,44.17
2018-11-13T07:18:22.351Z,40.97
2018-11-13T07:23:25.960Z,38.53
2018-11-13T07:28:29.609Z,38.60
2018-11-13T07:33:33.209Z,36.20
2018-11-13T07:38:37.496Z,37.60
2018-11-13T07:43:41.146Z,40.30
2018-11-13T07:48:45.191Z,39.50
2018-11-13T07:53:49.023Z,41.10
2018-11-13T07:58:52.690Z,36.87
2018-11-13T08:03:56.440Z,32.97
2018-11-13T08:09:00.478Z,35.40
2018-11-13T08:14:04.227Z,32.00
2018-11-13T08:19:07.884Z,32.37
2018-11-13T08:24:11.500Z,28.67
2018-11-13T08:29:14.998Z,29.90
2018-11-13T08:34:18.519Z,30.33
2018-11-13T08:39:21.974Z,28.57
2018-11-13T08:44:25.617Z,27.17
2018-11-13T08:49:29.281Z,27.30
2018-11-13T08:54:33.060Z,29.60
2018-11-13T08:59:36.800Z,26.10
2018-11-13T09:04:40.445Z,27.07
2018-11-13T09:09:44.164Z,27.57
2018-11-13T09:14:47.640Z,27.33
2018-11-13T09:19:51.597Z,30.63
2018-11-13T09:24:55.224Z,32.73
2018-11-13T09:29:58.740Z,33.73
2018-11-13T09:35:02.444Z,34.17
2018-11-13T09:40:09.858Z,29.77
2018-11-13T09:45:14.195Z,31.93
2018-11-13T09:50:19.119Z,32.43
2018-11-13T09:55:23.460Z,32.37
2018-11-13T10:00:27.125Z,38.87
2018-11-13T10:05:30.901Z,33.33
2018-11-13T10:10:34.473Z,33.57
2018-11-13T10:15:38.171Z,36.43
2018-11-13T10:20:42.032Z,34.90
2018-11-13T10:25:45.800Z,35.37
2018-11-13T10:30:49.273Z,35.67
2018-11-13T10:35:53.897Z,36.83
2018-11-13T10:40:57.526Z,38.03
2018-11-13T10:46:01.088Z,36.13
2018-11-13T10:51:04.974Z,32.30
2018-11-13T10:56:08.920Z,34.87
2018-11-13T11:01:18.058Z,32.37
2018-11-13T11:06:21.584Z,32.83
2018-11-13T11:11:25.382Z,34.13
2018-11-13T11:16:29.092Z,34.03
2018-11-13T11:21:32.884Z,31.70
2018-11-13T11:26:36.521Z,30.50
2018-11-13T11:31:40.011Z,30.10
2018-11-13T11:36:43.629Z,31.47
2018-11-13T11:41:47.177Z,25.57
2018-11-13T11:46:50.667Z,24.17
2018-11-13T11:51:54.452Z,24.70
2018-11-13T11:56:58.448Z,22.90
2018-11-13T12:02:02.082Z,23.03
2018-11-13T12:07:07.239Z,22.30
2018-11-13T12:12:11.031Z,22.00
2018-11-13T12:17:15.016Z,21.13
2018-11-13T12:22:18.620Z,23.27
2018-11-13T12:27:22.205Z,20.03
2018-11-13T12:32:25.873Z,23.93
2018-11-13T12:37:29.535Z,20.97
2018-11-13T12:42:33.129Z,16.40
2018-11-13T12:47:36.916Z,20.47
2018-11-13T12:52:40.436Z,14.90
2018-11-13T12:57:44.141Z,16.60
2018-11-13T13:02:48.081Z,18.60
2018-11-13T13:07:51.593Z,18.57
2018-11-13T13:12:55.226Z,20.87
2018-11-13T13:17:58.775Z,18.53
2018-11-13T13:23:02.690Z,15.83
2018-11-13T13:28:06.625Z,17.27
2018-11-13T13:33:11.499Z,18.47
2018-11-13T13:38:15.614Z,9.53
2018-11-13T13:43:19.808Z,7.90
2018-11-13T13:48:24.026Z,6.13
2018-11-13T13:53:27.936Z,5.83
2018-11-13T13:58:31.484Z,6.97
2018-11-13T14:03:35.046Z,9.63
2018-11-13T14:08:38.716Z,13.73
2018-11-13T14:13:42.221Z,13.80
2018-11-13T14:18:45.973Z,16.97
2018-11-13T14:23:49.553Z,11.33
2018-11-13T14:28:53.307Z,14.83
2018-11-13T14:33:57.041Z,15.83
2018-11-13T14:39:00.560Z,17.17
2018-11-13T14:44:06.374Z,14.47
2018-11-13T14:49:09.945Z,11.87
2018-11-13T14:54:13.500Z,13.33
2018-11-13T14:59:17.066Z,15.27
2018-11-13T15:04:21.714Z,14.90
2018-11-13T15:09:26.850Z,15.03
2018-11-13T15:14:29.403Z,14.47
2018-11-13T15:19:33.165Z,12.27
2018-11-13T15:24:36.935Z,17.23
2018-11-13T15:29:41.051Z,15.10
2018-11-13T15:34:45.024Z,12.83
2018-11-13T15:39:48.698Z,12.27
2018-11-13T15:44:52.497Z,12.77
2018-11-13T15:49:56.728Z,12.83
2018-11-13T15:55:00.740Z,15.07
2018-11-13T16:00:07.808Z,12.97
2018-11-13T16:05:46.297Z,13.43
2018-11-13T16:10:50.145Z,19.33
2018-11-13T16:15:53.975Z,11.17
2018-11-13T16:20:57.710Z,15.27
2018-11-13T16:26:01.210Z,10.03
2018-11-13T16:31:04.877Z,15.13
2018-11-13T16:36:08.461Z,13.90
2018-11-13T16:41:11.994Z,14.27
2018-11-13T16:46:15.524Z,11.63
2018-11-13T16:51:19.163Z,13.17
2018-11-13T16:56:22.967Z,13.80
2018-11-13T17:01:26.524Z,9.60
2018-11-13T17:06:30.192Z,8.57
2018-11-13T17:11:33.666Z,10.57
2018-11-13T17:16:37.381Z,12.67
2018-11-13T17:21:40.992Z,7.80
2018-11-13T17:26:44.638Z,11.97
2018-11-13T17:31:48.312Z,14.77
2018-11-13T17:36:51.911Z,10.70
2018-11-13T17:41:56.262Z,9.63
2018-11-13T17:47:00.045Z,9.63
2018-11-13T17:52:04.172Z,11.93
2018-11-13T17:57:07.885Z,9.30
2018-11-13T18:02:11.684Z,9.00
2018-11-13T18:07:15.389Z,7.70
2018-11-13T18:12:18.967Z,8.57
2018-11-13T18:17:22.638Z,12.40
2018-11-13T18:22:26.300Z,11.50
2018-11-13T18:27:31.323Z,13.67
2018-11-13T18:32:34.883Z,14.27
2018-11-13T18:37:38.757Z,12.40
2018-11-13T18:42:43.880Z,8.27
2018-11-13T18:47:47.657Z,8.37
2018-11-13T18:52:51.313Z,10.93
2018-11-13T18:57:55.024Z,9.90
2018-11-13T19:02:59.462Z,10.43
2018-11-13T19:08:03.224Z,12.00
2018-11-13T19:13:13.258Z,16.37
2018-11-13T19:18:17.790Z,8.27
2018-11-13T19:23:21.857Z,11.77
2018-11-13T19:28:30.649Z,10.00
2018-11-13T19:33:34.135Z,10.40
2018-11-13T19:38:37.877Z,10.83
2018-11-13T19:43:41.454Z,15.60
2018-11-13T19:48:45.312Z,10.33
2018-11-13T19:53:48.904Z,11.23
2018-11-13T19:58:52.729Z,17.03
2018-11-13T20:03:57.328Z,13.57
2018-11-13T20:09:01.120Z,13.83
2018-11-13T20:14:05.316Z,12.13
2018-11-13T20:19:09.121Z,14.07
2018-11-13T20:24:12.961Z,16.53
2018-11-13T20:29:17.464Z,12.17
2018-11-13T20:34:21.580Z,18.30
2018-11-13T20:39:25.272Z,15.63
2018-11-13T20:44:28.843Z,20.03
2018-11-13T20:49:32.430Z,12.57
2018-11-13T20:54:36.416Z,12.93
2018-11-13T20:59:39.851Z,15.80
2018-11-13T21:04:43.550Z,17.90
2018-11-13T21:09:47.219Z,18.83
2018-11-13T21:14:50.741Z,12.73
2018-11-13T21:19:54.493Z,13.80
2018-11-13T21:24:58.306Z,16.43
2018-11-13T21:30:02.242Z,17.17
2018-11-13T21:35:06.437Z,14.87
2018-11-13T21:40:12.753Z,17.70
2018-11-13T21:45:18.728Z,13.13
2018-11-13T21:50:24.327Z,17.13
2018-11-13T21:55:28.779Z,24.90
2018-11-13T22:00:36.436Z,18.60
2018-11-13T22:05:39.984Z,17.40
2018-11-13T22:10:44.483Z,15.63
2018-11-13T22:15:48.302Z,22.03
2018-11-13T22:20:51.804Z,20.50
2018-11-13T22:25:55.473Z,17.27
2018-11-13T22:30:59.560Z,21.13
2018-11-13T22:36:03.249Z,15.53
2018-11-13T22:41:07.166Z,18.57
2018-11-13T22:46:10.809Z,23.70
2018-11-13T22:51:14.436Z,18.97
2018-11-13T22:56:18.060Z,21.33
2018-11-13T23:01:21.803Z,22.23
2018-11-13T23:06:26.181Z,30.90
2018-11-13T23:11:29.753Z,21.47
2018-11-13T23:16:33.197Z,20.27
2018-11-13T23:21:36.682Z,22.37
2018-11-13T23:26:40.935Z,17.53
2018-11-13T23:31:43.988Z,24.70
2018-11-13T23:36:47.613Z,26.97
2018-11-13T23:41:51.203Z,19.63
2018-11-13T23:46:54.749Z,18.77
2018-11-13T23:51:58.285Z,20.17
2018-11-13T23:57:01.895Z,20.87
